sensor_id;sensor_type;location;lat;lon;timestamp;pressure;altitude;pressure_sealevel;temperature;humidity
9235;BME280;4652;42.716;23.218;2023-06-14T00:06:17;94554.97;;;17.23;100.00
9235;BME280;4652;42.716;23.218;2023-06-14T00:12:59;94549.94;;;17.13;100.00
9235;BME280;4652;42.716;23.218;2023-06-14T00:19:42;94558.41;;;16.99;100.00
9235;BME280;4652;42.716;23.218;2023-06-14T00:26:25;94544.59;;;17.04;100.00
9235;BME280;4652;42.716;23.218;2023-06-14T00:33:08;94538.31;;;16.91;100.00
9235;BME280;4652;42.716;23.218;2023-06-14T00:39:50;94532.50;;;16.81;100.00
9235;BME280;4652;42.716;23.218;2023-06-14T00:46:33;94527.75;;;16.78;100.00
9235;BME280;4652;42.716;23.218;2023-06-14T00:53:16;94541.56;;;16.85;100.00
9235;BME280;4652;42.716;23.218;2023-06-14T00:59:59;94539.34;;;16.87;100.00
9235;BME280;4652;42.716;23.218;2023-06-14T01:08:17;94515.81;;;16.70;100.00
9235;BME280;4652;42.716;23.218;2023-06-14T01:15:04;94527.00;;;16.89;100.00
9235;BME280;4652;42.716;23.218;2023-06-14T01:21:46;94511.56;;;16.81;100.00
9235;BME280;4652;42.716;23.218;2023-06-14T01:28:33;94524.63;;;17.00;100.00
9235;BME280;4652;42.716;23.218;2023-06-14T01:35:17;94531.47;;;17.18;100.00
9235;BME280;4652;42.716;23.218;2023-06-14T01:42:00;94522.06;;;17.16;100.00
9235;BME280;4652;42.716;23.218;2023-06-14T01:48:43;94516.38;;;17.09;100.00
9235;BME280;4652;42.716;23.218;2023-06-14T01:55:25;94535.22;;;17.14;100.00
9235;BME280;4652;42.716;23.218;2023-06-14T02:02:08;94536.72;;;16.90;100.00
9235;BME280;4652;42.716;23.218;2023-06-14T02:08:51;94554.34;;;16.72;100.00
9235;BME280;4652;42.716;23.218;2023-06-14T02:15:33;94562.38;;;16.69;100.00
9235;BME280;4652;42.716;23.218;2023-06-14T02:22:16;94572.94;;;16.70;100.00
9235;BME280;4652;42.716;23.218;2023-06-14T02:28:59;94575.06;;;16.65;100.00
9235;BME280;4652;42.716;23.218;2023-06-14T02:35:41;94567.81;;;16.69;100.00
9235;BME280;4652;42.716;23.218;2023-06-14T02:42:23;94560.59;;;16.73;100.00
9235;BME280;4652;42.716;23.218;2023-06-14T02:49:07;94557.13;;;16.84;100.00
9235;BME280;4652;42.716;23.218;2023-06-14T02:55:49;94566.72;;;16.82;100.00
9235;BME280;4652;42.716;23.218;2023-06-14T03:02:31;94562.22;;;16.86;100.00
9235;BME280;4652;42.716;23.218;2023-06-14T03:09:14;94575.88;;;16.98;100.00
9235;BME280;4652;42.716;23.218;2023-06-14T03:15:56;94555.38;;;16.80;100.00
9235;BME280;4652;42.716;23.218;2023-06-14T03:22:38;94590.44;;;17.14;100.00
9235;BME280;4652;42.716;23.218;2023-06-14T03:29:23;94582.59;;;17.13;100.00
9235;BME280;4652;42.716;23.218;2023-06-14T03:36:05;94588.81;;;17.01;100.00
9235;BME280;4652;42.716;23.218;2023-06-14T03:42:48;94578.88;;;16.84;100.00
9235;BME280;4652;42.716;23.218;2023-06-14T03:49:31;94584.34;;;16.96;100.00
9235;BME280;4652;42.716;23.218;2023-06-14T03:56:13;94582.28;;;17.14;100.00
9235;BME280;4652;42.716;23.218;2023-06-14T04:02:55;94585.25;;;17.33;100.00
9235;BME280;4652;42.716;23.218;2023-06-14T04:09:39;94585.84;;;17.39;100.00
9235;BME280;4652;42.716;23.218;2023-06-14T04:16:21;94555.44;;;17.49;100.00
9235;BME280;4652;42.716;23.218;2023-06-14T04:23:13;94568.09;;;17.90;100.00
9235;BME280;4652;42.716;23.218;2023-06-14T04:29:57;94564.78;;;18.33;100.00
9235;BME280;4652;42.716;23.218;2023-06-14T04:36:43;94570.63;;;18.59;100.00
9235;BME280;4652;42.716;23.218;2023-06-14T04:43:29;94553.94;;;18.88;100.00
9235;BME280;4652;42.716;23.218;2023-06-14T04:50:13;94571.16;;;19.04;100.00
9235;BME280;4652;42.716;23.218;2023-06-14T04:56:58;94560.69;;;18.78;100.00
9235;BME280;4652;42.716;23.218;2023-06-14T05:03:40;94559.00;;;19.02;100.00
9235;BME280;4652;42.716;23.218;2023-06-14T05:10:26;94577.50;;;20.14;100.00
9235;BME280;4652;42.716;23.218;2023-06-14T05:17:08;94579.06;;;20.46;100.00
9235;BME280;4652;42.716;23.218;2023-06-14T05:23:51;94579.22;;;20.54;100.00
9235;BME280;4652;42.716;23.218;2023-06-14T05:30:37;94597.81;;;19.98;100.00
9235;BME280;4652;42.716;23.218;2023-06-14T05:37:19;94609.69;;;19.30;100.00
9235;BME280;4652;42.716;23.218;2023-06-14T05:44:01;94616.03;;;19.19;100.00
9235;BME280;4652;42.716;23.218;2023-06-14T05:50:44;94612.75;;;19.13;100.00
9235;BME280;4652;42.716;23.218;2023-06-14T05:57:27;94588.16;;;18.58;100.00
9235;BME280;4652;42.716;23.218;2023-06-14T06:04:09;94629.25;;;18.65;100.00
9235;BME280;4652;42.716;23.218;2023-06-14T06:10:52;94638.03;;;18.46;100.00
9235;BME280;4652;42.716;23.218;2023-06-14T06:17:34;94620.63;;;18.63;100.00
9235;BME280;4652;42.716;23.218;2023-06-14T06:24:16;94632.16;;;18.84;100.00
9235;BME280;4652;42.716;23.218;2023-06-14T06:31:00;94630.84;;;19.33;100.00
9235;BME280;4652;42.716;23.218;2023-06-14T06:37:42;94626.81;;;19.27;100.00
9235;BME280;4652;42.716;23.218;2023-06-14T06:44:25;94618.78;;;19.47;100.00
9235;BME280;4652;42.716;23.218;2023-06-14T06:57:49;94613.06;;;26.80;nan
9235;BME280;4652;42.716;23.218;2023-06-14T07:08:13;94594.56;;;24.48;78.00
9235;BME280;4652;42.716;23.218;2023-06-14T07:14:54;94589.75;;;25.89;70.04
9235;BME280;4652;42.716;23.218;2023-06-14T07:28:20;94595.13;;;25.43;nan
9235;BME280;4652;42.716;23.218;2023-06-14T07:35:03;94593.34;;;24.38;nan
9235;BME280;4652;42.716;23.218;2023-06-14T07:41:45;94608.47;;;23.41;nan
9235;BME280;4652;42.716;23.218;2023-06-14T07:48:28;94605.50;;;22.41;nan
9235;BME280;4652;42.716;23.218;2023-06-14T07:55:10;94617.81;;;21.83;nan
9235;BME280;4652;42.716;23.218;2023-06-14T08:01:52;94622.13;;;22.52;nan
9235;BME280;4652;42.716;23.218;2023-06-14T08:08:36;94630.09;;;23.13;nan
9235;BME280;4652;42.716;23.218;2023-06-14T08:15:18;94629.56;;;22.51;nan
9235;BME280;4652;42.716;23.218;2023-06-14T08:22:00;94634.56;;;22.46;nan
9235;BME280;4652;42.716;23.218;2023-06-14T08:28:43;94636.09;;;23.88;nan
9235;BME280;4652;42.716;23.218;2023-06-14T08:35:26;94636.97;;;24.40;nan
9235;BME280;4652;42.716;23.218;2023-06-14T08:42:09;94625.00;;;25.31;nan
9235;BME280;4652;42.716;23.218;2023-06-14T08:48:55;94620.81;;;24.82;nan
9235;BME280;4652;42.716;23.218;2023-06-14T08:55:38;94626.13;;;25.19;nan
9235;BME280;4652;42.716;23.218;2023-06-14T09:02:21;94618.69;;;25.30;nan
9235;BME280;4652;42.716;23.218;2023-06-14T09:09:04;94619.81;;;24.10;nan
9235;BME280;4652;42.716;23.218;2023-06-14T09:15:47;94609.06;;;23.97;nan
9235;BME280;4652;42.716;23.218;2023-06-14T09:22:29;94592.06;;;24.29;nan
9235;BME280;4652;42.716;23.218;2023-06-14T09:29:13;94602.00;;;24.98;nan
9235;BME280;4652;42.716;23.218;2023-06-14T09:35:55;94604.78;;;26.45;nan
9235;BME280;4652;42.716;23.218;2023-06-14T09:42:37;94585.41;;;25.95;nan
9235;BME280;4652;42.716;23.218;2023-06-14T09:49:22;94586.97;;;24.89;nan
9235;BME280;4652;42.716;23.218;2023-06-14T09:56:06;94571.19;;;25.65;nan
9235;BME280;4652;42.716;23.218;2023-06-14T10:02:54;94572.78;;;25.87;nan
9235;BME280;4652;42.716;23.218;2023-06-14T10:09:39;94575.59;;;26.15;nan
9235;BME280;4652;42.716;23.218;2023-06-14T10:16:28;94560.44;;;25.39;nan
9235;BME280;4652;42.716;23.218;2023-06-14T10:23:17;94533.59;;;25.18;nan
9235;BME280;4652;42.716;23.218;2023-06-14T10:30:08;94539.69;;;26.12;nan
9235;BME280;4652;42.716;23.218;2023-06-14T10:37:04;94525.03;;;26.82;nan
9235;BME280;4652;42.716;23.218;2023-06-14T10:43:47;94541.25;;;26.59;nan
9235;BME280;4652;42.716;23.218;2023-06-14T10:50:30;94537.50;;;25.10;nan
9235;BME280;4652;42.716;23.218;2023-06-14T10:57:14;94533.22;;;25.34;nan
9235;BME280;4652;42.716;23.218;2023-06-14T11:03:56;94492.28;;;25.46;nan
9235;BME280;4652;42.716;23.218;2023-06-14T11:10:40;94504.41;;;25.13;nan
9235;BME280;4652;42.716;23.218;2023-06-14T11:17:23;94506.81;;;25.19;nan
9235;BME280;4652;42.716;23.218;2023-06-14T11:24:10;94488.72;;;25.32;nan
9235;BME280;4652;42.716;23.218;2023-06-14T11:31:01;94498.66;;;25.61;nan
9235;BME280;4652;42.716;23.218;2023-06-14T11:37:43;94513.78;;;24.91;nan
9235;BME280;4652;42.716;23.218;2023-06-14T11:44:25;94488.63;;;24.96;nan
9235;BME280;4652;42.716;23.218;2023-06-14T11:51:09;94482.44;;;25.31;nan
9235;BME280;4652;42.716;23.218;2023-06-14T11:57:53;94474.53;;;25.23;nan
9235;BME280;4652;42.716;23.218;2023-06-14T12:04:36;94470.69;;;25.66;nan
9235;BME280;4652;42.716;23.218;2023-06-14T12:11:19;94445.06;;;25.80;nan
9235;BME280;4652;42.716;23.218;2023-06-14T12:18:05;94449.38;;;25.63;nan
9235;BME280;4652;42.716;23.218;2023-06-14T12:24:48;94438.78;;;25.65;nan
9235;BME280;4652;42.716;23.218;2023-06-14T12:31:32;94443.44;;;26.39;nan
9235;BME280;4652;42.716;23.218;2023-06-14T12:38:15;94423.38;;;26.03;nan
9235;BME280;4652;42.716;23.218;2023-06-14T12:44:58;94414.69;;;26.29;nan
9235;BME280;4652;42.716;23.218;2023-06-14T12:51:41;94408.00;;;26.19;nan
9235;BME280;4652;42.716;23.218;2023-06-14T12:58:23;94401.16;;;26.52;nan
9235;BME280;4652;42.716;23.218;2023-06-14T14:52:03;94507.88;;;21.20;100.00
9235;BME280;4652;42.716;23.218;2023-06-14T14:58:46;94480.59;;;20.85;100.00
9235;BME280;4652;42.716;23.218;2023-06-14T15:05:29;94480.81;;;20.57;100.00
9235;BME280;4652;42.716;23.218;2023-06-14T15:12:12;94515.91;;;20.01;100.00
9235;BME280;4652;42.716;23.218;2023-06-14T15:18:54;94511.19;;;19.82;100.00
9235;BME280;4652;42.716;23.218;2023-06-14T15:25:36;94495.06;;;19.62;100.00
9235;BME280;4652;42.716;23.218;2023-06-14T15:32:20;94511.34;;;19.58;100.00
9235;BME280;4652;42.716;23.218;2023-06-14T15:39:02;94509.41;;;19.59;100.00
9235;BME280;4652;42.716;23.218;2023-06-14T15:45:45;94534.19;;;19.66;100.00
9235;BME280;4652;42.716;23.218;2023-06-14T15:52:28;94533.81;;;19.83;100.00
9235;BME280;4652;42.716;23.218;2023-06-14T15:59:10;94512.69;;;20.15;100.00
9235;BME280;4652;42.716;23.218;2023-06-14T16:05:52;94515.56;;;20.37;100.00
9235;BME280;4652;42.716;23.218;2023-06-14T16:12:36;94505.50;;;20.80;100.00
9235;BME280;4652;42.716;23.218;2023-06-14T16:19:18;94527.84;;;21.01;100.00
9235;BME280;4652;42.716;23.218;2023-06-14T16:26:00;94547.81;;;21.21;100.00
9235;BME280;4652;42.716;23.218;2023-06-14T16:32:43;94546.00;;;20.90;100.00
9235;BME280;4652;42.716;23.218;2023-06-14T16:39:25;94543.81;;;20.61;100.00
9235;BME280;4652;42.716;23.218;2023-06-14T16:46:08;94569.75;;;20.67;100.00
9235;BME280;4652;42.716;23.218;2023-06-14T16:52:53;94557.47;;;20.61;100.00
9235;BME280;4652;42.716;23.218;2023-06-14T16:59:35;94574.38;;;20.47;100.00
9235;BME280;4652;42.716;23.218;2023-06-14T17:06:18;94575.41;;;20.23;100.00
9235;BME280;4652;42.716;23.218;2023-06-14T17:13:03;94597.97;;;20.20;100.00
9235;BME280;4652;42.716;23.218;2023-06-14T17:19:45;94595.34;;;20.08;100.00
9235;BME280;4652;42.716;23.218;2023-06-14T17:26:27;94595.25;;;19.89;100.00
9235;BME280;4652;42.716;23.218;2023-06-14T17:33:10;94603.56;;;19.77;100.00
9235;BME280;4652;42.716;23.218;2023-06-14T17:39:52;94619.25;;;19.80;100.00
9235;BME280;4652;42.716;23.218;2023-06-14T17:46:37;94622.59;;;19.89;100.00
9235;BME280;4652;42.716;23.218;2023-06-14T17:53:21;94649.47;;;19.87;100.00
9235;BME280;4652;42.716;23.218;2023-06-14T18:00:03;94616.25;;;19.85;100.00
9235;BME280;4652;42.716;23.218;2023-06-14T18:06:46;94632.28;;;19.86;100.00
9235;BME280;4652;42.716;23.218;2023-06-14T18:13:29;94636.53;;;19.84;100.00
9235;BME280;4652;42.716;23.218;2023-06-14T18:20:12;94638.28;;;19.76;100.00
9235;BME280;4652;42.716;23.218;2023-06-14T18:26:55;94666.59;;;19.84;100.00
9235;BME280;4652;42.716;23.218;2023-06-14T18:33:38;94657.84;;;19.63;100.00
9235;BME280;4652;42.716;23.218;2023-06-14T18:40:20;94664.19;;;19.39;100.00
9235;BME280;4652;42.716;23.218;2023-06-14T18:47:02;94692.38;;;19.15;100.00
9235;BME280;4652;42.716;23.218;2023-06-14T18:53:46;94688.41;;;19.01;100.00
9235;BME280;4652;42.716;23.218;2023-06-14T20:12:02;94725.88;;;18.88;100.00
9235;BME280;4652;42.716;23.218;2023-06-14T20:18:44;94686.53;;;18.29;100.00
9235;BME280;4652;42.716;23.218;2023-06-14T20:25:26;94752.44;;;18.43;100.00
9235;BME280;4652;42.716;23.218;2023-06-14T20:32:10;94751.97;;;18.41;100.00
9235;BME280;4652;42.716;23.218;2023-06-14T20:38:52;94748.03;;;18.50;100.00
9235;BME280;4652;42.716;23.218;2023-06-14T20:45:34;94746.22;;;18.54;100.00
9235;BME280;4652;42.716;23.218;2023-06-14T20:52:18;94723.16;;;18.52;100.00
9235;BME280;4652;42.716;23.218;2023-06-14T20:59:00;94702.22;;;18.32;100.00
9235;BME280;4652;42.716;23.218;2023-06-14T21:12:46;94731.63;;;18.26;100.00
9235;BME280;4652;42.716;23.218;2023-06-14T21:19:28;94736.28;;;18.13;100.00
9235;BME280;4652;42.716;23.218;2023-06-14T21:26:10;94733.09;;;18.11;100.00
9235;BME280;4652;42.716;23.218;2023-06-14T21:32:53;94736.28;;;18.13;100.00
9235;BME280;4652;42.716;23.218;2023-06-14T21:39:36;94736.50;;;18.20;100.00
9235;BME280;4652;42.716;23.218;2023-06-14T21:46:18;94731.72;;;18.05;100.00
9235;BME280;4652;42.716;23.218;2023-06-14T21:53:02;94709.44;;;17.91;100.00
9235;BME280;4652;42.716;23.218;2023-06-14T21:59:44;94713.84;;;17.84;100.00
9235;BME280;4652;42.716;23.218;2023-06-14T22:06:26;94723.47;;;17.81;100.00
9235;BME280;4652;42.716;23.218;2023-06-14T22:13:10;94720.28;;;17.79;100.00
9235;BME280;4652;42.716;23.218;2023-06-14T22:19:53;94729.03;;;17.73;100.00
9235;BME280;4652;42.716;23.218;2023-06-14T22:26:42;94745.22;;;17.48;100.00
9235;BME280;4652;42.716;23.218;2023-06-14T22:33:28;94766.44;;;17.22;100.00
9235;BME280;4652;42.716;23.218;2023-06-14T22:40:11;94757.53;;;17.13;100.00
9235;BME280;4652;42.716;23.218;2023-06-14T22:46:53;94768.34;;;17.22;100.00
9235;BME280;4652;42.716;23.218;2023-06-14T22:53:37;94749.75;;;17.24;100.00
9235;BME280;4652;42.716;23.218;2023-06-14T23:00:19;94747.78;;;17.33;100.00
9235;BME280;4652;42.716;23.218;2023-06-14T23:07:02;94741.47;;;17.41;100.00
9235;BME280;4652;42.716;23.218;2023-06-14T23:13:46;94735.59;;;17.51;100.00
9235;BME280;4652;42.716;23.218;2023-06-14T23:20:29;94736.81;;;17.62;100.00
9235;BME280;4652;42.716;23.218;2023-06-14T23:27:12;94714.84;;;17.79;100.00
9235;BME280;4652;42.716;23.218;2023-06-14T23:33:56;94714.44;;;17.89;100.00
9235;BME280;4652;42.716;23.218;2023-06-14T23:40:38;94700.56;;;17.82;100.00
9235;BME280;4652;42.716;23.218;2023-06-14T23:47:20;94721.91;;;17.92;100.00
9235;BME280;4652;42.716;23.218;2023-06-14T23:54:04;94719.75;;;17.86;100.00
